sensor_id;sensor_type;location;lat;lon;timestamp;P1;durP1;ratioP1;P2;durP2;ratioP2
23676;SDS011;31493;49.058;12.190;2023-07-28T00:02:02;3.78;;;3.03;;
23676;SDS011;31493;49.058;12.190;2023-07-28T00:04:29;5.72;;;2.85;;
23676;SDS011;31493;49.058;12.190;2023-07-28T00:06:56;4.65;;;2.85;;
23676;SDS011;31493;49.058;12.190;2023-07-28T00:09:23;5.70;;;3.45;;
23676;SDS011;31493;49.058;12.190;2023-07-28T00:11:50;5.97;;;3.47;;
23676;SDS011;31493;49.058;12.190;2023-07-28T00:14:17;6.00;;;3.47;;
23676;SDS011;31493;49.058;12.190;2023-07-28T00:16:45;4.20;;;3.35;;
23676;SDS011;31493;49.058;12.190;2023-07-28T00:19:12;5.25;;;3.30;;
23676;SDS011;31493;49.058;12.190;2023-07-28T00:21:39;9.75;;;3.35;;
23676;SDS011;31493;49.058;12.190;2023-07-28T00:24:06;4.35;;;2.90;;
23676;SDS011;31493;49.058;12.190;2023-07-28T00:26:33;7.35;;;3.30;;
23676;SDS011;31493;49.058;12.190;2023-07-28T00:29:00;4.22;;;3.00;;
23676;SDS011;31493;49.058;12.190;2023-07-28T00:31:30;6.90;;;3.33;;
23676;SDS011;31493;49.058;12.190;2023-07-28T00:33:59;3.83;;;3.13;;
23676;SDS011;31493;49.058;12.190;2023-07-28T00:36:26;7.32;;;3.47;;
23676;SDS011;31493;49.058;12.190;2023-07-28T00:38:53;10.10;;;3.75;;
23676;SDS011;31493;49.058;12.190;2023-07-28T00:41:20;6.47;;;3.60;;
23676;SDS011;31493;49.058;12.190;2023-07-28T00:43:47;6.22;;;3.60;;
23676;SDS011;31493;49.058;12.190;2023-07-28T00:46:14;3.88;;;3.20;;
23676;SDS011;31493;49.058;12.190;2023-07-28T00:48:42;5.20;;;3.58;;
23676;SDS011;31493;49.058;12.190;2023-07-28T00:51:11;6.97;;;3.67;;
23676;SDS011;31493;49.058;12.190;2023-07-28T00:53:39;7.00;;;3.38;;
23676;SDS011;31493;49.058;12.190;2023-07-28T00:56:07;6.80;;;3.85;;
23676;SDS011;31493;49.058;12.190;2023-07-28T00:58:34;4.93;;;3.75;;
23676;SDS011;31493;49.058;12.190;2023-07-28T01:01:01;5.15;;;3.80;;
23676;SDS011;31493;49.058;12.190;2023-07-28T01:03:28;5.32;;;4.03;;
23676;SDS011;31493;49.058;12.190;2023-07-28T01:05:58;7.22;;;4.35;;
23676;SDS011;31493;49.058;12.190;2023-07-28T01:08:38;6.10;;;5.03;;
23676;SDS011;31493;49.058;12.190;2023-07-28T01:11:12;5.90;;;4.95;;
23676;SDS011;31493;49.058;12.190;2023-07-28T01:13:39;5.90;;;4.63;;
23676;SDS011;31493;49.058;12.190;2023-07-28T01:16:06;8.60;;;5.10;;
23676;SDS011;31493;49.058;12.190;2023-07-28T01:18:35;7.07;;;5.35;;
23676;SDS011;31493;49.058;12.190;2023-07-28T01:21:03;11.77;;;5.55;;
23676;SDS011;31493;49.058;12.190;2023-07-28T01:23:36;10.15;;;5.60;;
23676;SDS011;31493;49.058;12.190;2023-07-28T01:26:08;8.07;;;5.35;;
23676;SDS011;31493;49.058;12.190;2023-07-28T01:28:38;7.50;;;5.22;;
23676;SDS011;31493;49.058;12.190;2023-07-28T01:31:07;6.35;;;4.80;;
23676;SDS011;31493;49.058;12.190;2023-07-28T01:33:34;8.77;;;5.40;;
23676;SDS011;31493;49.058;12.190;2023-07-28T01:36:02;6.78;;;5.65;;
23676;SDS011;31493;49.058;12.190;2023-07-28T01:38:29;7.80;;;5.80;;
23676;SDS011;31493;49.058;12.190;2023-07-28T01:40:56;8.40;;;6.00;;
23676;SDS011;31493;49.058;12.190;2023-07-28T01:43:23;11.70;;;6.63;;
23676;SDS011;31493;49.058;12.190;2023-07-28T01:45:52;10.35;;;6.45;;
23676;SDS011;31493;49.058;12.190;2023-07-28T01:48:19;8.85;;;7.30;;
23676;SDS011;31493;49.058;12.190;2023-07-28T01:50:46;11.32;;;7.18;;
23676;SDS011;31493;49.058;12.190;2023-07-28T01:53:13;10.68;;;6.78;;
23676;SDS011;31493;49.058;12.190;2023-07-28T01:55:40;8.38;;;6.65;;
23676;SDS011;31493;49.058;12.190;2023-07-28T01:58:07;7.57;;;6.15;;
23676;SDS011;31493;49.058;12.190;2023-07-28T02:00:35;8.73;;;6.80;;
23676;SDS011;31493;49.058;12.190;2023-07-28T02:03:03;10.35;;;6.25;;
23676;SDS011;31493;49.058;12.190;2023-07-28T02:05:31;13.35;;;7.45;;
23676;SDS011;31493;49.058;12.190;2023-07-28T02:07:58;6.63;;;6.00;;
23676;SDS011;31493;49.058;12.190;2023-07-28T02:10:25;9.68;;;6.70;;
23676;SDS011;31493;49.058;12.190;2023-07-28T02:12:53;8.10;;;6.30;;
23676;SDS011;31493;49.058;12.190;2023-07-28T02:15:20;8.60;;;6.10;;
23676;SDS011;31493;49.058;12.190;2023-07-28T02:17:47;6.50;;;5.72;;
23676;SDS011;31493;49.058;12.190;2023-07-28T02:20:16;7.85;;;5.75;;
23676;SDS011;31493;49.058;12.190;2023-07-28T02:22:43;8.68;;;6.20;;
23676;SDS011;31493;49.058;12.190;2023-07-28T02:25:10;8.45;;;6.00;;
23676;SDS011;31493;49.058;12.190;2023-07-28T02:27:38;8.80;;;6.50;;
23676;SDS011;31493;49.058;12.190;2023-07-28T02:30:05;6.55;;;5.90;;
23676;SDS011;31493;49.058;12.190;2023-07-28T02:32:33;8.70;;;6.18;;
23676;SDS011;31493;49.058;12.190;2023-07-28T02:35:00;7.50;;;5.70;;
23676;SDS011;31493;49.058;12.190;2023-07-28T02:37:29;7.40;;;6.38;;
23676;SDS011;31493;49.058;12.190;2023-07-28T02:39:56;8.75;;;6.60;;
23676;SDS011;31493;49.058;12.190;2023-07-28T02:42:23;10.18;;;6.28;;
23676;SDS011;31493;49.058;12.190;2023-07-28T02:44:50;10.20;;;6.47;;
23676;SDS011;31493;49.058;12.190;2023-07-28T02:47:17;7.72;;;6.20;;
23676;SDS011;31493;49.058;12.190;2023-07-28T02:49:45;9.40;;;6.43;;
23676;SDS011;31493;49.058;12.190;2023-07-28T02:52:12;7.22;;;6.18;;
23676;SDS011;31493;49.058;12.190;2023-07-28T02:54:40;8.63;;;7.53;;
23676;SDS011;31493;49.058;12.190;2023-07-28T02:57:07;10.60;;;8.38;;
23676;SDS011;31493;49.058;12.190;2023-07-28T02:59:34;11.02;;;7.70;;
23676;SDS011;31493;49.058;12.190;2023-07-28T03:02:01;13.07;;;8.25;;
23676;SDS011;31493;49.058;12.190;2023-07-28T03:04:28;9.80;;;7.97;;
23676;SDS011;31493;49.058;12.190;2023-07-28T03:06:55;10.20;;;8.63;;
23676;SDS011;31493;49.058;12.190;2023-07-28T03:09:22;11.15;;;8.57;;
23676;SDS011;31493;49.058;12.190;2023-07-28T03:11:51;9.85;;;8.20;;
23676;SDS011;31493;49.058;12.190;2023-07-28T03:14:18;9.73;;;8.07;;
23676;SDS011;31493;49.058;12.190;2023-07-28T03:16:45;9.20;;;7.80;;
23676;SDS011;31493;49.058;12.190;2023-07-28T03:19:12;11.10;;;7.70;;
23676;SDS011;31493;49.058;12.190;2023-07-28T03:21:39;13.15;;;8.50;;
23676;SDS011;31493;49.058;12.190;2023-07-28T03:24:06;12.90;;;7.50;;
23676;SDS011;31493;49.058;12.190;2023-07-28T03:26:33;10.13;;;7.55;;
23676;SDS011;31493;49.058;12.190;2023-07-28T03:29:01;8.30;;;7.03;;
23676;SDS011;31493;49.058;12.190;2023-07-28T03:31:28;8.52;;;7.18;;
23676;SDS011;31493;49.058;12.190;2023-07-28T03:33:55;10.60;;;7.97;;
23676;SDS011;31493;49.058;12.190;2023-07-28T03:36:22;10.85;;;7.88;;
23676;SDS011;31493;49.058;12.190;2023-07-28T03:38:49;11.07;;;7.28;;
23676;SDS011;31493;49.058;12.190;2023-07-28T03:41:16;10.50;;;8.20;;
23676;SDS011;31493;49.058;12.190;2023-07-28T03:43:43;10.40;;;6.82;;
23676;SDS011;31493;49.058;12.190;2023-07-28T03:46:12;9.23;;;6.95;;
23676;SDS011;31493;49.058;12.190;2023-07-28T03:48:39;10.75;;;7.43;;
23676;SDS011;31493;49.058;12.190;2023-07-28T03:51:06;11.45;;;7.25;;
23676;SDS011;31493;49.058;12.190;2023-07-28T03:53:33;8.75;;;7.10;;
23676;SDS011;31493;49.058;12.190;2023-07-28T03:56:01;7.45;;;6.75;;
23676;SDS011;31493;49.058;12.190;2023-07-28T03:58:28;10.15;;;7.03;;
23676;SDS011;31493;49.058;12.190;2023-07-28T04:00:55;7.53;;;6.57;;
23676;SDS011;31493;49.058;12.190;2023-07-28T04:03:23;10.20;;;6.20;;
23676;SDS011;31493;49.058;12.190;2023-07-28T04:05:51;10.40;;;6.32;;
23676;SDS011;31493;49.058;12.190;2023-07-28T04:08:17;8.30;;;6.53;;
23676;SDS011;31493;49.058;12.190;2023-07-28T04:10:45;10.90;;;6.03;;
23676;SDS011;31493;49.058;12.190;2023-07-28T04:13:12;7.50;;;6.05;;
23676;SDS011;31493;49.058;12.190;2023-07-28T04:15:39;7.32;;;5.70;;
23676;SDS011;31493;49.058;12.190;2023-07-28T04:18:06;8.43;;;5.95;;
23676;SDS011;31493;49.058;12.190;2023-07-28T04:20:35;8.88;;;5.60;;
23676;SDS011;31493;49.058;12.190;2023-07-28T04:23:02;7.88;;;5.85;;
23676;SDS011;31493;49.058;12.190;2023-07-28T04:25:29;8.70;;;5.88;;
23676;SDS011;31493;49.058;12.190;2023-07-28T04:27:56;6.35;;;5.40;;
23676;SDS011;31493;49.058;12.190;2023-07-28T04:30:23;8.00;;;5.60;;
23676;SDS011;31493;49.058;12.190;2023-07-28T04:32:50;10.30;;;5.40;;
23676;SDS011;31493;49.058;12.190;2023-07-28T04:35:17;8.55;;;5.80;;
23676;SDS011;31493;49.058;12.190;2023-07-28T04:37:45;9.68;;;6.00;;
23676;SDS011;31493;49.058;12.190;2023-07-28T04:40:12;7.75;;;5.85;;
23676;SDS011;31493;49.058;12.190;2023-07-28T04:42:39;12.30;;;5.10;;
23676;SDS011;31493;49.058;12.190;2023-07-28T04:45:07;5.88;;;5.28;;
23676;SDS011;31493;49.058;12.190;2023-07-28T04:47:34;8.25;;;5.45;;
23676;SDS011;31493;49.058;12.190;2023-07-28T04:50:02;7.97;;;5.60;;
23676;SDS011;31493;49.058;12.190;2023-07-28T04:52:29;8.75;;;5.70;;
23676;SDS011;31493;49.058;12.190;2023-07-28T04:54:57;8.63;;;5.80;;
23676;SDS011;31493;49.058;12.190;2023-07-28T04:57:24;6.90;;;5.10;;
23676;SDS011;31493;49.058;12.190;2023-07-28T04:59:51;6.35;;;5.75;;
23676;SDS011;31493;49.058;12.190;2023-07-28T05:02:18;7.10;;;5.45;;
23676;SDS011;31493;49.058;12.190;2023-07-28T05:04:45;8.10;;;5.95;;
23676;SDS011;31493;49.058;12.190;2023-07-28T05:07:12;7.18;;;5.65;;
23676;SDS011;31493;49.058;12.190;2023-07-28T05:09:39;9.98;;;5.93;;
23676;SDS011;31493;49.058;12.190;2023-07-28T05:12:08;7.13;;;5.32;;
23676;SDS011;31493;49.058;12.190;2023-07-28T05:14:35;9.80;;;5.45;;
23676;SDS011;31493;49.058;12.190;2023-07-28T05:17:02;6.97;;;5.60;;
23676;SDS011;31493;49.058;12.190;2023-07-28T05:19:29;9.10;;;5.78;;
23676;SDS011;31493;49.058;12.190;2023-07-28T05:21:56;6.10;;;5.50;;
23676;SDS011;31493;49.058;12.190;2023-07-28T05:24:23;7.65;;;5.38;;
23676;SDS011;31493;49.058;12.190;2023-07-28T05:26:50;6.82;;;5.00;;
23676;SDS011;31493;49.058;12.190;2023-07-28T05:29:19;6.78;;;5.65;;
23676;SDS011;31493;49.058;12.190;2023-07-28T05:31:46;9.63;;;5.40;;
23676;SDS011;31493;49.058;12.190;2023-07-28T05:34:13;8.52;;;5.95;;
23676;SDS011;31493;49.058;12.190;2023-07-28T05:36:40;12.57;;;6.65;;
23676;SDS011;31493;49.058;12.190;2023-07-28T05:39:07;7.93;;;5.93;;
23676;SDS011;31493;49.058;12.190;2023-07-28T05:41:34;9.38;;;5.75;;
23676;SDS011;31493;49.058;12.190;2023-07-28T05:44:01;7.00;;;6.07;;
23676;SDS011;31493;49.058;12.190;2023-07-28T05:46:29;7.80;;;5.80;;
23676;SDS011;31493;49.058;12.190;2023-07-28T05:48:57;8.75;;;6.00;;
23676;SDS011;31493;49.058;12.190;2023-07-28T05:51:25;6.10;;;5.50;;
23676;SDS011;31493;49.058;12.190;2023-07-28T05:53:52;9.23;;;6.05;;
23676;SDS011;31493;49.058;12.190;2023-07-28T05:56:19;8.43;;;6.43;;
23676;SDS011;31493;49.058;12.190;2023-07-28T05:58:46;10.25;;;6.45;;
23676;SDS011;31493;49.058;12.190;2023-07-28T06:01:14;8.60;;;5.82;;
23676;SDS011;31493;49.058;12.190;2023-07-28T06:03:42;6.40;;;5.50;;
23676;SDS011;31493;49.058;12.190;2023-07-28T06:06:09;7.50;;;5.25;;
23676;SDS011;31493;49.058;12.190;2023-07-28T06:08:36;8.38;;;5.82;;
23676;SDS011;31493;49.058;12.190;2023-07-28T06:11:03;6.78;;;4.95;;
23676;SDS011;31493;49.058;12.190;2023-07-28T06:13:31;10.05;;;5.55;;
23676;SDS011;31493;49.058;12.190;2023-07-28T06:15:58;8.75;;;5.68;;
23676;SDS011;31493;49.058;12.190;2023-07-28T06:18:26;6.45;;;5.15;;
23676;SDS011;31493;49.058;12.190;2023-07-28T06:20:54;7.30;;;5.32;;
23676;SDS011;31493;49.058;12.190;2023-07-28T06:23:21;7.07;;;5.53;;
23676;SDS011;31493;49.058;12.190;2023-07-28T06:25:48;7.97;;;5.18;;
23676;SDS011;31493;49.058;12.190;2023-07-28T06:28:15;8.98;;;5.03;;
23676;SDS011;31493;49.058;12.190;2023-07-28T06:30:42;9.65;;;5.32;;
23676;SDS011;31493;49.058;12.190;2023-07-28T06:33:09;7.47;;;5.65;;
23676;SDS011;31493;49.058;12.190;2023-07-28T06:35:36;8.50;;;5.47;;
23676;SDS011;31493;49.058;12.190;2023-07-28T06:38:05;7.60;;;5.72;;
23676;SDS011;31493;49.058;12.190;2023-07-28T06:40:32;8.88;;;5.53;;
23676;SDS011;31493;49.058;12.190;2023-07-28T06:42:59;7.43;;;5.53;;
23676;SDS011;31493;49.058;12.190;2023-07-28T06:45:26;7.90;;;4.90;;
23676;SDS011;31493;49.058;12.190;2023-07-28T06:47:53;5.90;;;5.10;;
23676;SDS011;31493;49.058;12.190;2023-07-28T06:50:19;6.75;;;5.25;;
23676;SDS011;31493;49.058;12.190;2023-07-28T06:52:46;8.73;;;5.80;;
23676;SDS011;31493;49.058;12.190;2023-07-28T06:55:16;7.65;;;5.63;;
23676;SDS011;31493;49.058;12.190;2023-07-28T07:00:11;7.97;;;5.88;;
23676;SDS011;31493;49.058;12.190;2023-07-28T07:02:39;7.20;;;5.72;;
23676;SDS011;31493;49.058;12.190;2023-07-28T07:05:06;9.65;;;6.57;;
23676;SDS011;31493;49.058;12.190;2023-07-28T07:07:33;7.15;;;5.55;;
23676;SDS011;31493;49.058;12.190;2023-07-28T07:10:00;8.57;;;6.05;;
23676;SDS011;31493;49.058;12.190;2023-07-28T07:12:29;7.93;;;5.20;;
23676;SDS011;31493;49.058;12.190;2023-07-28T07:14:56;11.75;;;5.40;;
23676;SDS011;31493;49.058;12.190;2023-07-28T07:17:23;6.25;;;5.57;;
23676;SDS011;31493;49.058;12.190;2023-07-28T07:19:50;7.97;;;5.65;;
23676;SDS011;31493;49.058;12.190;2023-07-28T07:22:17;7.40;;;5.47;;
23676;SDS011;31493;49.058;12.190;2023-07-28T07:24:44;8.43;;;5.68;;
23676;SDS011;31493;49.058;12.190;2023-07-28T07:27:11;6.53;;;5.30;;
23676;SDS011;31493;49.058;12.190;2023-07-28T07:29:39;6.90;;;5.10;;
23676;SDS011;31493;49.058;12.190;2023-07-28T07:32:07;5.95;;;4.90;;
23676;SDS011;31493;49.058;12.190;2023-07-28T07:34:36;10.00;;;5.07;;
23676;SDS011;31493;49.058;12.190;2023-07-28T07:37:04;10.18;;;5.10;;
23676;SDS011;31493;49.058;12.190;2023-07-28T07:39:31;6.95;;;4.55;;
23676;SDS011;31493;49.058;12.190;2023-07-28T07:41:59;7.75;;;5.20;;
23676;SDS011;31493;49.058;12.190;2023-07-28T07:44:26;7.43;;;5.40;;
23676;SDS011;31493;49.058;12.190;2023-07-28T07:46:55;7.90;;;5.20;;
23676;SDS011;31493;49.058;12.190;2023-07-28T07:49:22;8.05;;;5.18;;
23676;SDS011;31493;49.058;12.190;2023-07-28T07:51:50;8.50;;;5.10;;
23676;SDS011;31493;49.058;12.190;2023-07-28T07:54:17;8.68;;;4.95;;
23676;SDS011;31493;49.058;12.190;2023-07-28T07:56:44;7.10;;;4.65;;
23676;SDS011;31493;49.058;12.190;2023-07-28T07:59:12;7.28;;;4.43;;
23676;SDS011;31493;49.058;12.190;2023-07-28T08:01:39;6.97;;;4.90;;
23676;SDS011;31493;49.058;12.190;2023-07-28T08:04:08;5.82;;;4.00;;
23676;SDS011;31493;49.058;12.190;2023-07-28T08:06:35;9.65;;;4.60;;
23676;SDS011;31493;49.058;12.190;2023-07-28T08:09:02;7.75;;;4.65;;
23676;SDS011;31493;49.058;12.190;2023-07-28T08:11:29;6.43;;;3.75;;
23676;SDS011;31493;49.058;12.190;2023-07-28T08:13:56;6.22;;;4.00;;
23676;SDS011;31493;49.058;12.190;2023-07-28T08:16:23;4.80;;;3.70;;
23676;SDS011;31493;49.058;12.190;2023-07-28T08:18:50;6.30;;;3.88;;
23676;SDS011;31493;49.058;12.190;2023-07-28T08:21:18;8.23;;;4.53;;
23676;SDS011;31493;49.058;12.190;2023-07-28T08:23:45;8.73;;;4.20;;
23676;SDS011;31493;49.058;12.190;2023-07-28T08:26:12;8.68;;;4.03;;
23676;SDS011;31493;49.058;12.190;2023-07-28T08:28:40;9.48;;;4.47;;
23676;SDS011;31493;49.058;12.190;2023-07-28T08:31:07;5.45;;;3.90;;
23676;SDS011;31493;49.058;12.190;2023-07-28T08:33:34;8.43;;;4.20;;
23676;SDS011;31493;49.058;12.190;2023-07-28T08:36:01;5.25;;;4.28;;
23676;SDS011;31493;49.058;12.190;2023-07-28T08:38:30;10.40;;;3.67;;
23676;SDS011;31493;49.058;12.190;2023-07-28T08:40:57;7.70;;;4.57;;
23676;SDS011;31493;49.058;12.190;2023-07-28T08:43:24;10.80;;;3.97;;
23676;SDS011;31493;49.058;12.190;2023-07-28T08:45:52;8.68;;;3.95;;
23676;SDS011;31493;49.058;12.190;2023-07-28T08:48:20;6.90;;;4.00;;
23676;SDS011;31493;49.058;12.190;2023-07-28T08:50:47;7.80;;;3.70;;
23676;SDS011;31493;49.058;12.190;2023-07-28T08:53:14;6.72;;;3.80;;
23676;SDS011;31493;49.058;12.190;2023-07-28T08:55:44;5.65;;;3.58;;
23676;SDS011;31493;49.058;12.190;2023-07-28T08:58:14;6.15;;;3.40;;
23676;SDS011;31493;49.058;12.190;2023-07-28T09:00:42;6.70;;;3.50;;
23676;SDS011;31493;49.058;12.190;2023-07-28T09:03:10;6.38;;;3.50;;
23676;SDS011;31493;49.058;12.190;2023-07-28T09:05:37;4.10;;;3.47;;
23676;SDS011;31493;49.058;12.190;2023-07-28T09:08:06;4.63;;;3.60;;
23676;SDS011;31493;49.058;12.190;2023-07-28T09:10:42;6.97;;;3.33;;
23676;SDS011;31493;49.058;12.190;2023-07-28T09:15:39;6.75;;;3.60;;
23676;SDS011;31493;49.058;12.190;2023-07-28T09:18:07;6.55;;;3.00;;
23676;SDS011;31493;49.058;12.190;2023-07-28T09:20:36;4.43;;;3.10;;
23676;SDS011;31493;49.058;12.190;2023-07-28T09:23:04;4.40;;;3.20;;
23676;SDS011;31493;49.058;12.190;2023-07-28T09:25:33;3.83;;;3.15;;
23676;SDS011;31493;49.058;12.190;2023-07-28T09:28:02;4.70;;;3.23;;
23676;SDS011;31493;49.058;12.190;2023-07-28T09:30:43;4.70;;;3.03;;
23676;SDS011;31493;49.058;12.190;2023-07-28T09:33:12;4.60;;;3.15;;
23676;SDS011;31493;49.058;12.190;2023-07-28T09:35:46;3.97;;;3.00;;
23676;SDS011;31493;49.058;12.190;2023-07-28T09:38:14;4.47;;;3.55;;
23676;SDS011;31493;49.058;12.190;2023-07-28T09:40:43;4.38;;;3.55;;
23676;SDS011;31493;49.058;12.190;2023-07-28T09:43:11;6.35;;;4.00;;
23676;SDS011;31493;49.058;12.190;2023-07-28T09:45:38;5.32;;;3.22;;
23676;SDS011;31493;49.058;12.190;2023-07-28T09:48:07;8.70;;;3.92;;
23676;SDS011;31493;49.058;12.190;2023-07-28T09:50:38;6.75;;;4.00;;
23676;SDS011;31493;49.058;12.190;2023-07-28T09:53:07;6.07;;;3.45;;
23676;SDS011;31493;49.058;12.190;2023-07-28T09:55:37;4.70;;;3.45;;
23676;SDS011;31493;49.058;12.190;2023-07-28T09:58:06;5.68;;;3.67;;
23676;SDS011;31493;49.058;12.190;2023-07-28T10:00:42;5.22;;;3.90;;
23676;SDS011;31493;49.058;12.190;2023-07-28T10:03:12;6.03;;;4.07;;
23676;SDS011;31493;49.058;12.190;2023-07-28T10:05:43;5.20;;;4.03;;
23676;SDS011;31493;49.058;12.190;2023-07-28T10:08:11;7.78;;;3.95;;
23676;SDS011;31493;49.058;12.190;2023-07-28T10:10:39;5.75;;;4.32;;
23676;SDS011;31493;49.058;12.190;2023-07-28T10:13:18;4.10;;;3.70;;
23676;SDS011;31493;49.058;12.190;2023-07-28T10:15:47;5.80;;;4.25;;
23676;SDS011;31493;49.058;12.190;2023-07-28T10:18:15;7.43;;;4.28;;
23676;SDS011;31493;49.058;12.190;2023-07-28T10:20:42;6.20;;;4.30;;
23676;SDS011;31493;49.058;12.190;2023-07-28T10:23:15;7.55;;;4.30;;
23676;SDS011;31493;49.058;12.190;2023-07-28T10:25:43;6.53;;;4.55;;
23676;SDS011;31493;49.058;12.190;2023-07-28T10:28:28;5.15;;;4.28;;
23676;SDS011;31493;49.058;12.190;2023-07-28T10:30:57;4.60;;;4.10;;
23676;SDS011;31493;49.058;12.190;2023-07-28T10:33:26;6.13;;;3.97;;
23676;SDS011;31493;49.058;12.190;2023-07-28T10:35:57;4.68;;;4.00;;
23676;SDS011;31493;49.058;12.190;2023-07-28T10:38:28;5.03;;;3.70;;
23676;SDS011;31493;49.058;12.190;2023-07-28T10:41:11;6.72;;;4.03;;
23676;SDS011;31493;49.058;12.190;2023-07-28T10:43:44;4.13;;;3.60;;
23676;SDS011;31493;49.058;12.190;2023-07-28T10:46:13;4.45;;;3.85;;
23676;SDS011;31493;49.058;12.190;2023-07-28T10:48:42;3.92;;;3.17;;
23676;SDS011;31493;49.058;12.190;2023-07-28T10:51:10;5.68;;;3.60;;
23676;SDS011;31493;49.058;12.190;2023-07-28T10:53:38;5.05;;;3.42;;
23676;SDS011;31493;49.058;12.190;2023-07-28T10:56:05;6.47;;;3.55;;
23676;SDS011;31493;49.058;12.190;2023-07-28T10:58:34;5.55;;;3.95;;
23676;SDS011;31493;49.058;12.190;2023-07-28T11:01:03;4.38;;;3.47;;
23676;SDS011;31493;49.058;12.190;2023-07-28T11:03:30;5.60;;;3.30;;
23676;SDS011;31493;49.058;12.190;2023-07-28T11:05:57;5.40;;;3.88;;
23676;SDS011;31493;49.058;12.190;2023-07-28T11:08:24;9.20;;;3.10;;
23676;SDS011;31493;49.058;12.190;2023-07-28T11:10:52;5.10;;;3.17;;
23676;SDS011;31493;49.058;12.190;2023-07-28T11:13:19;4.85;;;3.25;;
23676;SDS011;31493;49.058;12.190;2023-07-28T11:15:46;4.20;;;3.17;;
23676;SDS011;31493;49.058;12.190;2023-07-28T11:18:16;3.83;;;3.38;;
23676;SDS011;31493;49.058;12.190;2023-07-28T11:20:43;5.75;;;3.22;;
23676;SDS011;31493;49.058;12.190;2023-07-28T11:23:13;8.00;;;3.30;;
23676;SDS011;31493;49.058;12.190;2023-07-28T11:25:41;4.97;;;3.40;;
23676;SDS011;31493;49.058;12.190;2023-07-28T11:28:09;4.55;;;3.13;;
23676;SDS011;31493;49.058;12.190;2023-07-28T11:30:37;4.25;;;3.20;;
23676;SDS011;31493;49.058;12.190;2023-07-28T11:33:06;7.07;;;3.20;;
23676;SDS011;31493;49.058;12.190;2023-07-28T11:35:37;3.97;;;3.28;;
23676;SDS011;31493;49.058;12.190;2023-07-28T11:38:04;3.70;;;3.05;;
23676;SDS011;31493;49.058;12.190;2023-07-28T11:40:31;3.25;;;2.90;;
23676;SDS011;31493;49.058;12.190;2023-07-28T11:43:00;4.05;;;3.08;;
23676;SDS011;31493;49.058;12.190;2023-07-28T11:45:29;7.13;;;3.33;;
23676;SDS011;31493;49.058;12.190;2023-07-28T11:47:56;4.38;;;2.72;;
23676;SDS011;31493;49.058;12.190;2023-07-28T11:50:25;4.93;;;2.80;;
23676;SDS011;31493;49.058;12.190;2023-07-28T11:52:55;2.95;;;2.63;;
23676;SDS011;31493;49.058;12.190;2023-07-28T11:55:23;4.78;;;3.00;;
23676;SDS011;31493;49.058;12.190;2023-07-28T11:57:51;4.25;;;2.90;;
23676;SDS011;31493;49.058;12.190;2023-07-28T12:00:18;3.65;;;2.80;;
23676;SDS011;31493;49.058;12.190;2023-07-28T12:03:00;3.10;;;2.53;;
23676;SDS011;31493;49.058;12.190;2023-07-28T12:05:29;3.88;;;2.67;;
23676;SDS011;31493;49.058;12.190;2023-07-28T12:07:57;4.22;;;2.50;;
23676;SDS011;31493;49.058;12.190;2023-07-28T12:10:25;5.03;;;2.50;;
23676;SDS011;31493;49.058;12.190;2023-07-28T12:12:52;4.43;;;2.70;;
23676;SDS011;31493;49.058;12.190;2023-07-28T12:15:20;2.85;;;2.38;;
23676;SDS011;31493;49.058;12.190;2023-07-28T12:18:03;3.78;;;2.20;;
23676;SDS011;31493;49.058;12.190;2023-07-28T12:20:34;4.10;;;2.22;;
23676;SDS011;31493;49.058;12.190;2023-07-28T12:23:07;4.68;;;2.15;;
23676;SDS011;31493;49.058;12.190;2023-07-28T12:25:35;2.30;;;2.10;;
23676;SDS011;31493;49.058;12.190;2023-07-28T12:28:03;4.03;;;2.15;;
23676;SDS011;31493;49.058;12.190;2023-07-28T12:30:30;3.95;;;2.28;;
23676;SDS011;31493;49.058;12.190;2023-07-28T12:32:59;2.72;;;1.95;;
23676;SDS011;31493;49.058;12.190;2023-07-28T12:35:27;3.25;;;2.70;;
23676;SDS011;31493;49.058;12.190;2023-07-28T12:37:56;4.10;;;2.50;;
23676;SDS011;31493;49.058;12.190;2023-07-28T12:40:27;3.55;;;2.47;;
23676;SDS011;31493;49.058;12.190;2023-07-28T12:42:55;5.22;;;2.50;;
23676;SDS011;31493;49.058;12.190;2023-07-28T12:45:22;4.43;;;2.58;;
23676;SDS011;31493;49.058;12.190;2023-07-28T12:47:51;2.83;;;2.00;;
23676;SDS011;31493;49.058;12.190;2023-07-28T12:50:19;2.00;;;1.90;;
23676;SDS011;31493;49.058;12.190;2023-07-28T12:52:47;4.38;;;2.10;;
23676;SDS011;31493;49.058;12.190;2023-07-28T12:55:17;2.10;;;1.88;;
23676;SDS011;31493;49.058;12.190;2023-07-28T12:57:49;2.00;;;1.80;;
23676;SDS011;31493;49.058;12.190;2023-07-28T13:00:16;2.03;;;1.73;;
23676;SDS011;31493;49.058;12.190;2023-07-28T13:02:44;1.83;;;1.55;;
23676;SDS011;31493;49.058;12.190;2023-07-28T13:05:15;2.10;;;1.45;;
23676;SDS011;31493;49.058;12.190;2023-07-28T13:07:42;2.05;;;1.35;;
23676;SDS011;31493;49.058;12.190;2023-07-28T13:10:10;2.47;;;1.30;;
23676;SDS011;31493;49.058;12.190;2023-07-28T13:12:38;1.67;;;1.30;;
23676;SDS011;31493;49.058;12.190;2023-07-28T13:15:07;1.70;;;1.35;;
23676;SDS011;31493;49.058;12.190;2023-07-28T13:17:34;1.98;;;1.38;;
23676;SDS011;31493;49.058;12.190;2023-07-28T13:20:02;3.67;;;1.25;;
23676;SDS011;31493;49.058;12.190;2023-07-28T13:22:29;3.25;;;1.20;;
23676;SDS011;31493;49.058;12.190;2023-07-28T13:24:56;0.98;;;0.80;;
23676;SDS011;31493;49.058;12.190;2023-07-28T13:27:23;2.00;;;1.00;;
23676;SDS011;31493;49.058;12.190;2023-07-28T13:29:50;1.00;;;0.80;;
23676;SDS011;31493;49.058;12.190;2023-07-28T13:32:22;4.10;;;0.80;;
23676;SDS011;31493;49.058;12.190;2023-07-28T13:34:50;1.20;;;1.00;;
23676;SDS011;31493;49.058;12.190;2023-07-28T13:37:18;4.03;;;1.00;;
23676;SDS011;31493;49.058;12.190;2023-07-28T13:39:45;1.42;;;1.00;;
23676;SDS011;31493;49.058;12.190;2023-07-28T13:42:12;1.85;;;1.10;;
23676;SDS011;31493;49.058;12.190;2023-07-28T13:44:41;1.20;;;1.10;;
23676;SDS011;31493;49.058;12.190;2023-07-28T13:47:09;5.60;;;1.00;;
23676;SDS011;31493;49.058;12.190;2023-07-28T13:49:37;2.25;;;1.10;;
23676;SDS011;31493;49.058;12.190;2023-07-28T13:52:05;2.00;;;1.05;;
23676;SDS011;31493;49.058;12.190;2023-07-28T13:54:32;1.10;;;0.90;;
23676;SDS011;31493;49.058;12.190;2023-07-28T13:56:59;2.63;;;1.10;;
23676;SDS011;31493;49.058;12.190;2023-07-28T13:59:26;1.92;;;0.98;;
23676;SDS011;31493;49.058;12.190;2023-07-28T14:01:53;4.00;;;1.08;;
23676;SDS011;31493;49.058;12.190;2023-07-28T14:04:21;1.10;;;0.70;;
23676;SDS011;31493;49.058;12.190;2023-07-28T14:06:50;1.30;;;0.90;;
23676;SDS011;31493;49.058;12.190;2023-07-28T14:09:17;1.67;;;0.80;;
23676;SDS011;31493;49.058;12.190;2023-07-28T14:11:44;2.90;;;1.00;;
23676;SDS011;31493;49.058;12.190;2023-07-28T14:14:11;1.45;;;0.90;;
23676;SDS011;31493;49.058;12.190;2023-07-28T14:16:38;1.02;;;0.90;;
23676;SDS011;31493;49.058;12.190;2023-07-28T14:19:05;1.30;;;1.00;;
23676;SDS011;31493;49.058;12.190;2023-07-28T14:21:32;0.98;;;0.80;;
23676;SDS011;31493;49.058;12.190;2023-07-28T14:24:00;1.98;;;0.90;;
23676;SDS011;31493;49.058;12.190;2023-07-28T14:26:27;1.95;;;0.90;;
23676;SDS011;31493;49.058;12.190;2023-07-28T14:28:54;1.00;;;0.82;;
23676;SDS011;31493;49.058;12.190;2023-07-28T14:31:21;1.33;;;0.90;;
23676;SDS011;31493;49.058;12.190;2023-07-28T14:33:48;1.35;;;0.85;;
23676;SDS011;31493;49.058;12.190;2023-07-28T14:36:15;1.20;;;0.90;;
23676;SDS011;31493;49.058;12.190;2023-07-28T14:38:42;0.95;;;0.85;;
23676;SDS011;31493;49.058;12.190;2023-07-28T14:41:11;1.90;;;0.70;;
23676;SDS011;31493;49.058;12.190;2023-07-28T14:46:05;3.67;;;0.90;;